Strona główna
METAR-TAF:

METAR-TAF

Lotnisko :

Port lotniczy Brazzaville

Brazzaville, Kongo

Szerokość geograficzna: 04-15S, Długość geograficzna: 015-15E, wysokość: 319 m

Aktualna obserwacja pogody

Raport powstał 30 minut temu, godzina 18:00 UTC
Wiatr 2 kt od zachód
Temperatura 26°C
Wilgotność 58%
Ciśnienie 1014 hPa
Widzialność: 7000 m

METAR: FCBB 201800Z 26002KT 7000 NSC 26/17 Q1014 NOSIG

czas: 19:30 (18:30 UTC)

Prognoza

Raport powstał 1 godzina i 30 minut temu, godzina 17:00 UTC
Prognoza ważna od 20 godzina 18 UTC do 21 godzina 24 UTC
Wiatr 4 kt od zachodnio-południowy zachód
Widzialność: 7000 m
Mało chmury na wysokości 2000 ft
Prawdopodobieństwo 30%
od 21 godzina 05 UTC do 21 godzina 08 UTC
Widzialność: 4000 m
zamglenie
Prawdopodobieństwo 30%
od 21 godzina 14 UTC do 21 godzina 18 UTC
Widzialność: 4000 m
zmętnienie,

TAF: FCBB 201700Z 2018/2124 25004KT 7000 FEW020 PROB30 2105/2108 4000 BR PROB30 2114/2118 4000 HZ

Obserwacja i prognoza pogody dla ponad 4000 lotnisk (raport METAR i TAF).

Dostępne stacje oznaczono żółtymi i czerwonymi punktami na mapie.

Najedź kursorem aby zobaczyć nazwę stacji.

Kliknij aby zobaczyć obserwacje i prognozy pogody.

Aby zmienić mapę: kliknij na zielony przycisk z czarnym krzyżykiem, aby powiększyć; na zielony przycisk z myślnikiem, aby pomniejszyć; na zielone strzałki, aby przejść do map sąsiednich.


METAR-TAF: